createdAt,value
2018-12-19T00:01:34.667Z,15.73
2018-12-19T00:04:03.073Z,15.30
2018-12-19T00:06:31.265Z,15.60
2018-12-19T00:09:03.168Z,15.47
2018-12-19T00:11:29.615Z,15.53
2018-12-19T00:13:58.079Z,15.23
2018-12-19T00:16:26.201Z,15.37
2018-12-19T00:18:54.415Z,14.93
2018-12-19T00:21:22.546Z,15.87
2018-12-19T00:23:50.699Z,14.43
2018-12-19T00:26:18.862Z,14.40
2018-12-19T00:28:48.189Z,14.20
2018-12-19T00:31:16.367Z,14.57
2018-12-19T00:33:44.714Z,14.73
2018-12-19T00:36:12.887Z,15.97
2018-12-19T00:38:40.989Z,15.33
2018-12-19T00:41:09.161Z,14.70
2018-12-19T00:43:37.309Z,14.43
2018-12-19T00:46:05.661Z,14.50
2018-12-19T00:48:33.995Z,15.17
2018-12-19T00:51:02.304Z,14.00
2018-12-19T00:53:30.594Z,14.77
2018-12-19T00:55:58.901Z,14.57
2018-12-19T00:58:27.437Z,14.83
2018-12-19T01:00:55.919Z,14.10
2018-12-19T01:03:24.095Z,14.17
2018-12-19T01:05:52.268Z,13.67
2018-12-19T01:08:20.541Z,14.67
2018-12-19T01:10:48.953Z,15.07
2018-12-19T01:13:17.170Z,18.70
2018-12-19T01:15:45.478Z,13.63
2018-12-19T01:18:13.660Z,14.40
2018-12-19T01:20:41.999Z,13.67
2018-12-19T01:23:10.160Z,13.97
2018-12-19T01:25:38.312Z,14.53
2018-12-19T01:28:06.446Z,14.43
2018-12-19T01:30:34.632Z,14.73
2018-12-19T01:33:02.800Z,15.57
2018-12-19T01:35:31.157Z,17.80
2018-12-19T01:37:59.298Z,23.47
2018-12-19T01:40:27.574Z,25.10
2018-12-19T01:42:55.702Z,24.60
2018-12-19T01:45:24.058Z,24.53
2018-12-19T01:47:52.716Z,19.07
2018-12-19T01:50:21.040Z,15.87
2018-12-19T01:52:49.258Z,14.83
2018-12-19T01:55:17.443Z,16.00
2018-12-19T01:57:45.640Z,17.00
2018-12-19T02:00:14.124Z,14.93
2018-12-19T02:02:42.333Z,14.30
2018-12-19T02:05:10.601Z,14.40
2018-12-19T02:07:38.743Z,14.57
2018-12-19T02:10:07.142Z,15.63
2018-12-19T02:12:35.275Z,14.90
2018-12-19T02:15:03.853Z,14.33
2018-12-19T02:17:32.015Z,15.30
2018-12-19T02:20:00.296Z,14.90
2018-12-19T02:22:28.463Z,15.17
2018-12-19T02:24:56.781Z,14.50
2018-12-19T02:27:25.441Z,14.13
2018-12-19T02:29:54.181Z,14.00
2018-12-19T02:32:22.648Z,12.70
2018-12-19T02:34:51.078Z,14.17
2018-12-19T02:37:19.169Z,14.10
2018-12-19T02:39:47.473Z,13.77
2018-12-19T02:42:15.589Z,14.37
2018-12-19T02:44:43.869Z,13.40
2018-12-19T02:47:11.979Z,12.93
2018-12-19T02:49:40.102Z,12.90
2018-12-19T02:52:08.229Z,13.87
2018-12-19T02:54:36.461Z,14.37
2018-12-19T02:57:04.759Z,13.43
2018-12-19T02:59:32.929Z,13.07
2018-12-19T03:02:01.206Z,13.33
2018-12-19T03:04:29.308Z,13.00
2018-12-19T03:06:57.403Z,13.07
2018-12-19T03:09:25.582Z,12.20
2018-12-19T03:11:53.981Z,13.27
2018-12-19T03:14:22.173Z,12.83
2018-12-19T03:16:50.512Z,13.00
2018-12-19T03:19:18.681Z,11.90
2018-12-19T03:21:46.990Z,11.60
2018-12-19T03:24:15.180Z,12.03
2018-12-19T03:26:44.426Z,11.53
2018-12-19T03:29:12.575Z,12.90
2018-12-19T03:31:40.738Z,12.43
2018-12-19T03:34:08.895Z,12.10
2018-12-19T03:36:37.321Z,12.63
2018-12-19T03:39:07.170Z,13.20
2018-12-19T03:41:35.645Z,11.93
2018-12-19T03:44:03.847Z,12.17
2018-12-19T03:46:31.957Z,11.37
2018-12-19T03:49:00.057Z,11.23
2018-12-19T03:51:28.340Z,10.77
2018-12-19T03:53:56.528Z,11.57
2018-12-19T03:56:24.707Z,12.33
2018-12-19T03:58:53.034Z,12.07
2018-12-19T04:01:21.452Z,11.57
2018-12-19T04:03:49.645Z,11.70
2018-12-19T04:06:17.962Z,11.30
2018-12-19T04:08:46.690Z,11.90
2018-12-19T04:11:14.980Z,10.70
2018-12-19T04:13:43.093Z,10.63
2018-12-19T04:16:11.377Z,10.53
2018-12-19T04:18:39.689Z,10.47
2018-12-19T04:21:07.928Z,10.40
2018-12-19T04:23:36.136Z,9.73
2018-12-19T04:26:04.301Z,10.20
2018-12-19T04:28:32.581Z,10.17
2018-12-19T04:31:00.779Z,10.53
2018-12-19T04:33:29.163Z,9.23
2018-12-19T04:35:57.582Z,8.80
2018-12-19T04:38:26.305Z,9.80
2018-12-19T04:40:54.456Z,9.80
2018-12-19T04:43:22.546Z,8.47
2018-12-19T04:45:50.697Z,8.40
2018-12-19T04:48:18.975Z,8.83
2018-12-19T04:50:47.082Z,8.50
2018-12-19T04:53:15.353Z,7.30
2018-12-19T04:55:43.580Z,8.00
2018-12-19T04:58:11.918Z,9.03
2018-12-19T05:00:40.166Z,9.20
2018-12-19T05:03:08.992Z,8.30
2018-12-19T05:05:37.090Z,8.67
2018-12-19T05:08:05.473Z,8.03
2018-12-19T05:10:33.635Z,8.63
2018-12-19T05:13:02.050Z,8.23
2018-12-19T05:15:30.222Z,7.83
2018-12-19T05:17:58.526Z,8.73
2018-12-19T05:20:27.386Z,7.77
2018-12-19T05:22:55.484Z,7.87
2018-12-19T05:25:30.421Z,7.77
2018-12-19T05:27:58.570Z,8.33
2018-12-19T05:30:26.737Z,7.87
2018-12-19T05:32:55.054Z,8.87
2018-12-19T05:35:23.157Z,8.20
2018-12-19T05:37:51.256Z,7.87
2018-12-19T05:40:19.587Z,8.13
2018-12-19T05:42:47.912Z,8.53
2018-12-19T05:45:16.031Z,8.37
2018-12-19T05:47:44.203Z,10.07
2018-12-19T05:50:13.969Z,8.73
2018-12-19T05:52:42.091Z,9.07
2018-12-19T05:55:10.365Z,8.77
2018-12-19T05:57:38.811Z,8.90
2018-12-19T06:00:08.132Z,8.47
2018-12-19T06:02:36.421Z,8.10
2018-12-19T06:05:05.884Z,8.33
2018-12-19T06:07:34.099Z,8.80
2018-12-19T06:10:02.259Z,8.20
2018-12-19T06:12:30.389Z,9.43
2018-12-19T06:14:58.557Z,8.30
2018-12-19T06:17:26.661Z,8.87
2018-12-19T06:19:54.902Z,9.60
2018-12-19T06:22:23.279Z,8.87
2018-12-19T06:24:51.645Z,8.60
2018-12-19T06:27:19.785Z,9.50
2018-12-19T06:29:47.975Z,8.83
2018-12-19T06:32:16.114Z,8.80
2018-12-19T06:34:44.432Z,8.80
2018-12-19T06:37:13.305Z,9.33
2018-12-19T06:39:41.448Z,8.77
2018-12-19T06:42:09.537Z,9.77
2018-12-19T06:44:38.432Z,9.57
2018-12-19T06:47:06.787Z,9.70
2018-12-19T06:49:35.031Z,10.13
2018-12-19T06:52:04.227Z,9.87
2018-12-19T06:54:32.289Z,8.80
2018-12-19T06:57:00.488Z,8.93
2018-12-19T06:59:28.609Z,10.13
2018-12-19T07:01:57.395Z,9.90
2018-12-19T07:04:25.542Z,10.20
2018-12-19T07:06:53.755Z,9.30
2018-12-19T07:09:23.606Z,9.83
2018-12-19T07:11:52.807Z,9.50
2018-12-19T07:14:20.885Z,10.20
2018-12-19T07:16:48.977Z,9.67
2018-12-19T07:19:17.285Z,9.83
2018-12-19T07:21:45.456Z,10.57
2018-12-19T07:24:13.863Z,10.37
2018-12-19T07:26:41.978Z,8.63
2018-12-19T07:29:10.204Z,8.77
2018-12-19T07:31:38.340Z,8.47
2018-12-19T07:34:06.670Z,8.07
2018-12-19T07:36:34.866Z,8.93
2018-12-19T07:39:06.154Z,8.80
2018-12-19T07:41:34.636Z,8.63
2018-12-19T07:44:02.780Z,8.00
2018-12-19T07:46:31.176Z,7.43
2018-12-19T07:48:59.984Z,7.73
2018-12-19T07:51:28.162Z,7.70
2018-12-19T07:53:57.330Z,7.30
2018-12-19T07:56:25.484Z,8.53
2018-12-19T07:58:54.136Z,6.67
2018-12-19T08:01:22.306Z,7.37
2018-12-19T08:03:50.409Z,7.03
2018-12-19T08:06:18.518Z,6.77
2018-12-19T08:08:46.633Z,6.67
2018-12-19T08:11:15.519Z,6.93
2018-12-19T08:13:43.635Z,6.70
2018-12-19T08:16:11.936Z,6.83
2018-12-19T08:18:40.973Z,7.40
2018-12-19T08:21:09.410Z,7.00
2018-12-19T08:23:37.521Z,6.97
2018-12-19T08:26:05.861Z,6.70
2018-12-19T08:28:34.112Z,7.07
2018-12-19T08:31:02.569Z,7.00
2018-12-19T08:33:30.765Z,7.07
2018-12-19T08:35:59.117Z,6.87
2018-12-19T08:38:28.530Z,7.50
2018-12-19T08:40:58.860Z,7.33
2018-12-19T08:43:27.714Z,7.87
2018-12-19T08:45:56.339Z,7.93
2018-12-19T08:48:24.524Z,7.00
2018-12-19T08:50:52.871Z,6.53
2018-12-19T08:53:21.192Z,8.20
2018-12-19T08:55:49.411Z,7.63
2018-12-19T08:58:17.606Z,6.70
2018-12-19T09:00:45.976Z,7.53
2018-12-19T09:03:14.327Z,6.93
2018-12-19T09:05:42.677Z,7.10
2018-12-19T09:08:11.459Z,7.23
2018-12-19T09:10:39.616Z,6.97
2018-12-19T09:13:07.963Z,7.03
2018-12-19T09:15:42.054Z,7.03
2018-12-19T09:18:10.228Z,7.47
2018-12-19T09:20:38.403Z,7.73
2018-12-19T09:23:06.552Z,7.70
2018-12-19T09:25:34.975Z,7.70
2018-12-19T09:28:04.051Z,7.80
2018-12-19T09:30:32.395Z,7.60
2018-12-19T09:33:00.508Z,7.03
2018-12-19T09:35:28.702Z,7.73
2018-12-19T09:37:56.891Z,7.17
2018-12-19T09:40:25.086Z,7.20
2018-12-19T09:42:53.261Z,7.20
2018-12-19T09:45:21.386Z,7.20
2018-12-19T09:47:49.533Z,7.97
2018-12-19T09:50:17.684Z,7.67
2018-12-19T09:52:45.913Z,7.50
2018-12-19T09:57:48.682Z,7.63
2018-12-19T10:00:22.591Z,7.83
2018-12-19T10:02:50.764Z,7.67
2018-12-19T10:05:19.193Z,7.80
2018-12-19T10:07:47.422Z,7.57
2018-12-19T10:10:15.614Z,8.13
2018-12-19T10:12:43.736Z,7.23
2018-12-19T10:15:11.900Z,7.10
2018-12-19T10:17:40.981Z,7.00
2018-12-19T10:20:09.756Z,8.03
2018-12-19T10:22:37.997Z,7.40
2018-12-19T10:25:12.158Z,7.20
2018-12-19T10:27:40.406Z,7.50
2018-12-19T10:30:11.489Z,6.80
2018-12-19T10:32:40.212Z,7.60
2018-12-19T10:35:10.666Z,6.57
2018-12-19T10:37:38.803Z,6.90
2018-12-19T10:40:11.251Z,7.13
2018-12-19T10:42:39.456Z,6.47
2018-12-19T10:45:10.012Z,6.97
2018-12-19T10:47:38.175Z,7.30
2018-12-19T10:50:09.378Z,6.97
2018-12-19T10:52:37.631Z,7.30
2018-12-19T10:55:08.758Z,7.80
2018-12-19T10:57:37.075Z,6.90
2018-12-19T11:00:19.638Z,7.07
2018-12-19T11:02:47.901Z,8.10
2018-12-19T11:05:16.035Z,7.40
2018-12-19T11:07:44.194Z,6.60
2018-12-19T11:10:12.365Z,6.70
2018-12-19T11:12:40.603Z,6.70
2018-12-19T11:15:10.375Z,6.17
2018-12-19T11:17:38.587Z,6.40
2018-12-19T11:20:09.599Z,7.20
2018-12-19T11:22:37.822Z,7.20
2018-12-19T11:25:06.819Z,7.00
2018-12-19T11:27:34.947Z,7.67
2018-12-19T11:30:04.121Z,9.30
2018-12-19T11:32:32.250Z,10.17
2018-12-19T11:35:00.599Z,7.73
2018-12-19T11:37:28.802Z,8.00
2018-12-19T11:39:57.137Z,8.97
2018-12-19T11:42:25.628Z,7.90
2018-12-19T11:44:53.969Z,9.50
2018-12-19T11:47:22.192Z,9.70
2018-12-19T11:49:50.383Z,7.67
2018-12-19T11:52:18.572Z,7.23
2018-12-19T11:54:46.846Z,7.47
2018-12-19T11:57:15.358Z,7.20
2018-12-19T11:59:43.633Z,6.93
2018-12-19T12:02:11.905Z,6.63
2018-12-19T12:04:40.118Z,6.97
2018-12-19T12:07:08.920Z,7.13
2018-12-19T12:09:37.070Z,7.13
2018-12-19T12:12:05.301Z,7.27
2018-12-19T12:14:33.645Z,7.17
2018-12-19T12:17:02.025Z,7.30
2018-12-19T12:19:30.220Z,6.40
2018-12-19T12:21:58.412Z,7.10
2018-12-19T12:24:26.621Z,7.27
2018-12-19T12:26:54.807Z,7.03
2018-12-19T12:29:22.967Z,7.43
2018-12-19T12:31:51.234Z,7.30
2018-12-19T12:34:19.437Z,7.17
2018-12-19T12:36:47.692Z,6.93
2018-12-19T12:39:16.091Z,7.03
2018-12-19T12:41:44.268Z,7.70
2018-12-19T12:44:12.431Z,7.37
2018-12-19T12:46:40.662Z,6.73
2018-12-19T12:49:08.962Z,7.87
2018-12-19T12:51:37.158Z,7.37
2018-12-19T12:54:05.857Z,7.80
2018-12-19T12:56:33.988Z,7.73
2018-12-19T12:59:02.134Z,7.93
2018-12-19T13:01:30.288Z,7.67
2018-12-19T13:03:58.467Z,8.00
2018-12-19T13:06:26.762Z,8.17
2018-12-19T13:08:55.138Z,8.30
2018-12-19T13:11:23.269Z,8.40
2018-12-19T13:13:51.392Z,8.63
2018-12-19T13:16:19.612Z,8.17
2018-12-19T13:18:47.840Z,7.97
2018-12-19T13:21:16.004Z,8.60
2018-12-19T13:23:44.213Z,8.57
2018-12-19T13:26:12.530Z,8.40
2018-12-19T13:28:40.668Z,9.17
2018-12-19T13:31:08.892Z,7.37
2018-12-19T13:33:37.222Z,8.17
2018-12-19T13:36:05.391Z,8.10
2018-12-19T13:38:33.610Z,8.77
2018-12-19T13:41:01.887Z,8.90
2018-12-19T13:43:30.082Z,8.47
2018-12-19T13:45:58.282Z,9.47
2018-12-19T13:48:26.487Z,9.13
2018-12-19T13:50:54.684Z,9.50
2018-12-19T13:53:22.882Z,9.10
2018-12-19T13:55:51.088Z,8.73
2018-12-19T13:58:19.867Z,9.50
2018-12-19T14:00:48.038Z,9.77
2018-12-19T14:03:16.417Z,9.37
2018-12-19T14:05:44.596Z,10.13
2018-12-19T14:08:12.785Z,9.40
2018-12-19T14:10:41.145Z,9.23
2018-12-19T14:13:09.314Z,9.87
2018-12-19T14:15:37.509Z,9.80
2018-12-19T14:18:05.633Z,9.23
2018-12-19T14:20:33.798Z,10.03
2018-12-19T14:23:02.013Z,9.60
2018-12-19T14:25:30.357Z,9.90
2018-12-19T14:27:58.569Z,9.27
2018-12-19T14:30:26.869Z,10.10
2018-12-19T14:32:55.167Z,9.20
2018-12-19T14:35:23.529Z,9.77
2018-12-19T14:37:51.633Z,9.83
2018-12-19T14:40:20.008Z,9.03
2018-12-19T14:42:48.295Z,9.80
2018-12-19T14:45:16.482Z,10.00
2018-12-19T14:47:45.524Z,9.97
2018-12-19T14:50:13.889Z,9.90
2018-12-19T14:52:42.085Z,9.83
2018-12-19T14:55:10.699Z,10.13
2018-12-19T14:57:38.978Z,9.60
2018-12-19T15:00:09.737Z,10.30
2018-12-19T15:02:38.075Z,10.00
2018-12-19T15:05:06.539Z,10.17
2018-12-19T15:07:34.702Z,10.80
2018-12-19T15:10:03.695Z,10.33
2018-12-19T15:12:31.845Z,10.27
2018-12-19T15:15:00.066Z,10.67
2018-12-19T15:17:28.996Z,11.67
2018-12-19T15:19:57.171Z,10.90
2018-12-19T15:22:25.416Z,10.60
2018-12-19T15:24:53.601Z,11.27
2018-12-19T15:27:21.869Z,10.43
2018-12-19T15:29:49.988Z,11.10
2018-12-19T15:32:18.241Z,10.97
2018-12-19T15:34:46.522Z,11.37
2018-12-19T15:37:14.796Z,14.05
2018-12-19T15:39:42.996Z,11.93
2018-12-19T15:42:11.132Z,11.40
2018-12-19T15:44:39.260Z,11.37
2018-12-19T15:47:07.532Z,11.83
2018-12-19T15:49:35.632Z,10.23
2018-12-19T15:52:03.903Z,11.20
2018-12-19T15:54:38.863Z,11.10
2018-12-19T15:57:07.292Z,12.43
2018-12-19T15:59:35.825Z,12.00
2018-12-19T16:02:04.742Z,11.73
2018-12-19T16:04:32.963Z,11.33
2018-12-19T16:07:01.305Z,11.50
2018-12-19T16:09:29.491Z,11.27
2018-12-19T16:11:57.847Z,11.37
2018-12-19T16:14:26.090Z,11.37
2018-12-19T16:16:54.230Z,11.67
2018-12-19T16:19:22.648Z,11.73
2018-12-19T16:21:50.984Z,12.10
2018-12-19T16:24:19.261Z,11.70
2018-12-19T16:26:47.410Z,11.23
2018-12-19T16:29:15.553Z,11.53
2018-12-19T16:31:43.708Z,12.07
2018-12-19T16:34:12.086Z,12.03
2018-12-19T16:36:40.257Z,11.53
2018-12-19T16:39:09.132Z,11.77
2018-12-19T16:41:37.364Z,12.53
2018-12-19T16:44:05.551Z,12.40
2018-12-19T16:46:34.331Z,13.70
2018-12-19T16:49:02.576Z,13.03
2018-12-19T16:51:30.898Z,14.67
2018-12-19T16:53:59.162Z,12.27
2018-12-19T16:56:27.334Z,11.80
2018-12-19T16:58:55.563Z,11.07
2018-12-19T17:01:23.784Z,13.30
2018-12-19T17:03:52.059Z,13.13
2018-12-19T17:06:20.268Z,12.00
2018-12-19T17:08:48.516Z,12.70
2018-12-19T17:11:17.113Z,12.57
2018-12-19T17:13:45.367Z,12.53
2018-12-19T17:16:14.053Z,12.17
2018-12-19T17:18:42.605Z,11.87
2018-12-19T17:21:10.799Z,12.50
2018-12-19T17:23:38.995Z,12.67
2018-12-19T17:26:07.093Z,12.37
2018-12-19T17:28:35.233Z,12.50
2018-12-19T17:31:03.466Z,11.80
2018-12-19T17:33:31.593Z,12.40
2018-12-19T17:35:59.909Z,12.40
2018-12-19T17:38:28.110Z,12.37
2018-12-19T17:40:56.274Z,13.27
2018-12-19T17:43:24.482Z,12.07
2018-12-19T17:45:52.640Z,13.87
2018-12-19T17:48:20.740Z,12.27
2018-12-19T17:50:48.902Z,12.67
2018-12-19T17:53:17.118Z,12.77
2018-12-19T17:55:45.234Z,12.87
2018-12-19T17:58:13.367Z,12.47
2018-12-19T18:00:41.568Z,12.40
2018-12-19T18:03:09.889Z,11.87
2018-12-19T18:05:38.098Z,12.90
2018-12-19T18:08:06.232Z,11.97
2018-12-19T18:10:34.462Z,12.07
2018-12-19T18:13:06.070Z,12.47
2018-12-19T18:15:32.791Z,12.87
2018-12-19T18:18:01.000Z,12.27
2018-12-19T18:20:29.210Z,13.17
2018-12-19T18:22:57.407Z,12.50
2018-12-19T18:25:25.515Z,12.77
2018-12-19T18:27:53.706Z,12.70
2018-12-19T18:30:21.864Z,13.00
2018-12-19T18:32:50.113Z,13.13
2018-12-19T18:35:18.290Z,13.07
2018-12-19T18:37:46.493Z,13.03
2018-12-19T18:40:14.689Z,12.53
2018-12-19T18:42:42.871Z,13.73
2018-12-19T18:45:11.963Z,13.47
2018-12-19T18:47:40.766Z,13.10
2018-12-19T18:50:08.960Z,14.23
2018-12-19T18:52:37.146Z,14.40
2018-12-19T18:55:06.646Z,12.67
2018-12-19T18:57:34.887Z,13.20
2018-12-19T19:00:04.380Z,12.87
2018-12-19T19:02:32.829Z,13.03
2018-12-19T19:05:01.152Z,12.80
2018-12-19T19:07:29.461Z,13.73
2018-12-19T19:09:57.762Z,12.77
2018-12-19T19:12:25.927Z,12.83
2018-12-19T19:14:54.121Z,12.77
2018-12-19T19:17:22.311Z,14.03
2018-12-19T19:19:50.615Z,12.43
2018-12-19T19:22:18.917Z,12.53
2018-12-19T19:24:47.177Z,13.73
2018-12-19T19:27:15.324Z,13.30
2018-12-19T19:29:43.583Z,13.17
2018-12-19T19:32:11.723Z,12.90
2018-12-19T19:34:39.911Z,13.30
2018-12-19T19:37:08.246Z,13.07
2018-12-19T19:39:36.474Z,12.90
2018-12-19T19:42:04.711Z,13.10
2018-12-19T19:44:33.046Z,13.40
2018-12-19T19:47:01.362Z,13.70
2018-12-19T19:49:29.530Z,13.87
2018-12-19T19:51:57.826Z,14.07
2018-12-19T19:54:26.008Z,14.13
2018-12-19T19:56:54.227Z,13.70
2018-12-19T20:02:06.211Z,14.07
2018-12-19T20:04:34.346Z,14.33
2018-12-19T20:07:02.660Z,13.60
2018-12-19T20:09:30.915Z,13.60
2018-12-19T20:11:59.045Z,13.27
2018-12-19T20:14:27.343Z,13.97
2018-12-19T20:17:00.993Z,13.43
2018-12-19T20:19:29.932Z,14.17
2018-12-19T20:21:58.080Z,14.27
2018-12-19T20:24:26.250Z,13.83
2018-12-19T20:26:54.547Z,13.20
2018-12-19T20:29:22.733Z,13.83
2018-12-19T20:31:50.883Z,14.50
2018-12-19T20:34:19.079Z,14.40
2018-12-19T20:36:47.287Z,13.93
2018-12-19T20:39:15.490Z,14.87
2018-12-19T20:41:43.624Z,14.13
2018-12-19T20:44:11.920Z,14.27
2018-12-19T20:46:40.098Z,15.10
2018-12-19T20:49:08.290Z,15.23
2018-12-19T20:51:36.427Z,16.33
2018-12-19T20:54:04.569Z,14.83
2018-12-19T20:56:32.645Z,13.67
2018-12-19T20:59:00.778Z,15.23
2018-12-19T21:01:29.031Z,14.47
2018-12-19T21:03:57.152Z,14.50
2018-12-19T21:06:25.351Z,14.97
2018-12-19T21:08:53.528Z,14.23
2018-12-19T21:11:21.699Z,14.97
2018-12-19T21:13:49.979Z,15.57
2018-12-19T21:16:20.185Z,15.40
2018-12-19T21:18:51.673Z,14.43
2018-12-19T21:21:19.856Z,14.23
2018-12-19T21:23:48.024Z,14.77
2018-12-19T21:26:16.253Z,14.10
2018-12-19T21:28:44.518Z,13.90
2018-12-19T21:31:12.913Z,14.33
2018-12-19T21:33:41.142Z,13.63
2018-12-19T21:36:09.485Z,15.97
2018-12-19T21:38:37.812Z,15.33
2018-12-19T21:41:06.064Z,16.43
2018-12-19T21:43:34.198Z,14.67
2018-12-19T21:46:02.512Z,14.90
2018-12-19T21:48:30.716Z,15.30
2018-12-19T21:50:58.934Z,15.60
2018-12-19T21:53:27.134Z,15.30
2018-12-19T21:55:55.552Z,15.83
2018-12-19T21:58:23.972Z,16.40
2018-12-19T22:00:52.304Z,15.93
2018-12-19T22:03:20.658Z,16.63
2018-12-19T22:05:49.102Z,16.77
2018-12-19T22:08:17.258Z,17.97
2018-12-19T22:10:45.552Z,17.10
2018-12-19T22:13:13.981Z,15.90
2018-12-19T22:15:42.326Z,16.90
2018-12-19T22:18:18.102Z,17.87
2018-12-19T22:20:46.273Z,17.20
2018-12-19T22:23:14.470Z,16.90
2018-12-19T22:25:43.268Z,15.13
2018-12-19T22:28:11.475Z,15.73
2018-12-19T22:30:39.708Z,14.33
2018-12-19T22:33:08.121Z,14.90
2018-12-19T22:35:36.427Z,16.10
2018-12-19T22:38:04.675Z,14.57
2018-12-19T22:40:32.867Z,15.83
2018-12-19T22:43:01.159Z,15.33
2018-12-19T22:45:29.266Z,15.60
2018-12-19T22:47:57.576Z,15.20
2018-12-19T22:50:25.951Z,15.73
2018-12-19T22:52:54.723Z,16.30
2018-12-19T22:55:22.977Z,16.53
2018-12-19T22:57:51.218Z,16.17
2018-12-19T23:00:20.449Z,16.13
2018-12-19T23:03:08.761Z,15.73
2018-12-19T23:05:42.799Z,17.90
2018-12-19T23:08:11.070Z,16.43
2018-12-19T23:10:39.324Z,16.73
2018-12-19T23:13:07.511Z,16.50
2018-12-19T23:15:35.687Z,16.70
2018-12-19T23:18:10.022Z,15.73
2018-12-19T23:20:38.503Z,16.53
2018-12-19T23:23:06.636Z,15.53
2018-12-19T23:25:34.723Z,15.83
2018-12-19T23:28:03.002Z,15.83
2018-12-19T23:30:31.441Z,15.43
2018-12-19T23:33:00.102Z,16.03
2018-12-19T23:35:28.350Z,15.77
2018-12-19T23:37:56.662Z,20.03
2018-12-19T23:40:24.782Z,15.97
2018-12-19T23:42:53.108Z,15.07
2018-12-19T23:45:21.333Z,16.37
2018-12-19T23:47:49.762Z,16.73
2018-12-19T23:50:17.933Z,17.37
2018-12-19T23:52:46.081Z,16.63
2018-12-19T23:55:14.494Z,14.33
2018-12-19T23:57:42.801Z,15.13
